createdAt,value
2022-09-06T00:01:17.211Z,21.01
2022-09-06T00:03:45.084Z,20.99
2022-09-06T00:06:14.747Z,21.00
2022-09-06T00:08:42.711Z,20.73
2022-09-06T00:11:10.493Z,20.69
2022-09-06T00:13:38.667Z,20.67
2022-09-06T00:16:08.741Z,20.61
2022-09-06T00:18:37.842Z,20.57
2022-09-06T00:21:05.931Z,20.55
2022-09-06T00:23:33.758Z,20.68
2022-09-06T00:26:05.150Z,20.70
2022-09-06T00:28:33.019Z,20.71
2022-09-06T00:31:00.753Z,21.05
2022-09-06T00:33:28.631Z,20.82
2022-09-06T00:36:01.316Z,20.88
2022-09-06T00:38:29.199Z,20.77
2022-09-06T00:40:57.418Z,20.70
2022-09-06T00:43:25.303Z,20.64
2022-09-06T00:45:54.555Z,20.58
2022-09-06T00:48:22.647Z,20.63
2022-09-06T00:50:52.194Z,20.67
2022-09-06T00:53:26.003Z,20.49
2022-09-06T00:55:54.300Z,20.53
2022-09-06T00:58:22.574Z,20.67
2022-09-06T01:00:50.219Z,20.50
2022-09-06T01:03:19.082Z,20.33
2022-09-06T01:05:54.722Z,20.22
2022-09-06T01:08:36.923Z,19.94
2022-09-06T01:11:29.756Z,20.02
2022-09-06T01:14:03.804Z,19.92
2022-09-06T01:16:38.394Z,19.95
2022-09-06T01:19:34.574Z,20.09
2022-09-06T01:22:13.255Z,20.13
2022-09-06T01:25:05.283Z,19.89
2022-09-06T01:28:12.655Z,19.72
2022-09-06T01:30:45.700Z,19.59
2022-09-06T01:33:17.789Z,19.53
2022-09-06T01:35:49.576Z,19.56
2022-09-06T01:38:18.121Z,19.31
2022-09-06T01:40:45.932Z,19.46
2022-09-06T01:43:21.458Z,19.37
2022-09-06T01:45:57.879Z,19.50
2022-09-06T01:48:30.558Z,19.48
2022-09-06T01:51:03.270Z,19.61
2022-09-06T01:54:01.156Z,19.44
2022-09-06T01:56:34.158Z,19.61
2022-09-06T01:59:21.292Z,19.36
2022-09-06T02:01:57.741Z,19.54
2022-09-06T02:04:29.402Z,19.61
2022-09-06T02:07:01.248Z,19.58
2022-09-06T02:09:32.439Z,19.52
2022-09-06T02:12:02.050Z,19.62
2022-09-06T02:14:32.945Z,19.58
2022-09-06T02:17:03.292Z,19.47
2022-09-06T02:19:36.103Z,19.20
2022-09-06T02:22:07.003Z,19.37
2022-09-06T02:24:37.374Z,19.39
2022-09-06T02:27:05.406Z,19.44
2022-09-06T02:29:33.103Z,19.63
2022-09-06T02:32:09.522Z,19.62
2022-09-06T02:34:38.861Z,19.60
2022-09-06T02:37:06.772Z,19.63
2022-09-06T02:39:34.640Z,19.93
2022-09-06T02:42:02.782Z,19.75
2022-09-06T02:44:30.343Z,19.74
2022-09-06T02:46:57.972Z,19.76
2022-09-06T02:49:27.280Z,20.07
2022-09-06T02:51:54.832Z,19.98
2022-09-06T02:54:22.476Z,19.98
2022-09-06T02:56:52.462Z,19.90
2022-09-06T02:59:22.215Z,19.91
2022-09-06T03:01:49.968Z,19.88
2022-09-06T03:04:18.337Z,20.01
2022-09-06T03:06:47.371Z,20.12
2022-09-06T03:09:14.990Z,20.08
2022-09-06T03:11:42.631Z,20.21
2022-09-06T03:14:11.183Z,20.03
2022-09-06T03:16:39.577Z,20.11
2022-09-06T03:19:07.232Z,19.92
2022-09-06T03:21:35.092Z,19.95
2022-09-06T03:24:04.890Z,19.90
2022-09-06T03:26:32.823Z,19.98
2022-09-06T03:29:00.868Z,20.04
2022-09-06T03:31:28.491Z,19.94
2022-09-06T03:33:56.220Z,19.84
2022-09-06T03:36:23.888Z,20.01
2022-09-06T03:38:53.959Z,20.09
2022-09-06T03:41:23.142Z,20.12
2022-09-06T03:43:50.998Z,20.15
2022-09-06T03:46:18.963Z,20.27
2022-09-06T03:48:47.206Z,20.27
2022-09-06T03:51:15.660Z,20.11
2022-09-06T03:53:43.304Z,20.23
2022-09-06T03:56:11.115Z,20.08
2022-09-06T03:58:40.088Z,20.07
2022-09-06T04:01:09.497Z,20.04
2022-09-06T04:03:38.444Z,19.84
2022-09-06T04:06:07.829Z,19.85
2022-09-06T04:08:36.507Z,19.74
2022-09-06T04:11:04.680Z,19.62
2022-09-06T04:13:33.392Z,19.79
2022-09-06T04:16:02.806Z,19.80
2022-09-06T04:18:31.005Z,19.78
2022-09-06T04:20:59.857Z,19.77
2022-09-06T04:23:29.319Z,19.52
2022-09-06T04:25:58.975Z,19.38
2022-09-06T04:28:28.024Z,19.41
2022-09-06T04:31:01.968Z,19.39
2022-09-06T04:33:34.521Z,19.52
2022-09-06T04:36:03.776Z,19.58
2022-09-06T04:38:36.656Z,19.60
2022-09-06T04:41:05.782Z,19.59
2022-09-06T04:43:33.707Z,19.44
2022-09-06T04:46:05.009Z,19.27
2022-09-06T04:48:34.180Z,19.11
2022-09-06T04:51:01.815Z,19.05
2022-09-06T04:53:32.639Z,18.98
2022-09-06T04:56:00.506Z,18.94
2022-09-06T04:58:28.384Z,19.19
2022-09-06T05:00:56.187Z,19.31
2022-09-06T05:03:23.798Z,19.36
2022-09-06T05:08:49.067Z,19.20
2022-09-06T05:11:17.090Z,19.14
2022-09-06T05:13:46.423Z,19.08
2022-09-06T05:16:14.406Z,19.11
2022-09-06T05:18:42.112Z,19.00
2022-09-06T05:21:11.587Z,18.90
2022-09-06T05:23:39.226Z,19.10
2022-09-06T05:26:07.198Z,18.97
2022-09-06T05:28:35.019Z,19.10
2022-09-06T05:31:09.792Z,18.57
2022-09-06T05:33:38.146Z,18.17
2022-09-06T05:36:07.130Z,18.08
2022-09-06T05:38:36.322Z,17.68
2022-09-06T05:41:03.966Z,17.66
2022-09-06T05:43:31.560Z,17.65
2022-09-06T05:45:59.738Z,17.57
2022-09-06T05:48:28.090Z,17.60
2022-09-06T05:51:02.847Z,17.86
2022-09-06T05:53:36.419Z,17.87
2022-09-06T05:56:05.337Z,17.43
2022-09-06T05:58:33.437Z,17.51
2022-09-06T06:01:08.946Z,17.54
2022-09-06T06:03:36.502Z,17.48
2022-09-06T06:06:04.022Z,17.60
2022-09-06T06:08:31.578Z,17.61
2022-09-06T06:11:01.310Z,17.64
2022-09-06T06:13:29.741Z,17.58
2022-09-06T06:15:57.439Z,17.62
2022-09-06T06:18:25.044Z,17.54
2022-09-06T06:20:52.745Z,17.66
2022-09-06T06:23:20.487Z,17.79
2022-09-06T06:25:47.998Z,18.04
2022-09-06T06:28:17.729Z,18.05
2022-09-06T06:30:45.379Z,18.17
2022-09-06T06:33:12.964Z,18.42
2022-09-06T06:35:40.659Z,18.51
2022-09-06T06:38:08.220Z,18.54
2022-09-06T06:40:35.735Z,18.30
2022-09-06T06:43:03.386Z,18.20
2022-09-06T06:45:32.309Z,18.35
2022-09-06T06:47:59.903Z,18.33
2022-09-06T06:50:27.481Z,18.20
2022-09-06T06:52:55.206Z,18.38
2022-09-06T06:55:22.755Z,18.46
2022-09-06T06:57:50.291Z,18.32
2022-09-06T07:00:18.432Z,18.40
2022-09-06T07:02:47.318Z,18.51
2022-09-06T07:08:02.767Z,18.55
2022-09-06T07:12:58.107Z,18.26
2022-09-06T07:15:26.079Z,18.25
2022-09-06T07:17:56.932Z,18.33
2022-09-06T07:20:26.010Z,18.35
2022-09-06T07:25:48.839Z,18.32
2022-09-06T07:28:16.355Z,18.17
2022-09-06T07:30:44.202Z,18.24
2022-09-06T07:33:13.186Z,18.34
2022-09-06T07:35:41.635Z,18.49
2022-09-06T07:38:09.232Z,18.66
2022-09-06T07:40:36.754Z,18.90
2022-09-06T07:43:04.278Z,19.03
2022-09-06T07:45:31.784Z,19.17
2022-09-06T07:47:59.757Z,19.14
2022-09-06T07:50:47.347Z,19.44
2022-09-06T07:53:22.956Z,19.52
2022-09-06T07:55:56.691Z,19.92
2022-09-06T07:58:24.378Z,20.09
2022-09-06T08:00:51.984Z,20.07
2022-09-06T08:03:19.910Z,20.56
2022-09-06T08:11:28.280Z,20.71
2022-09-06T08:13:56.575Z,20.73
2022-09-06T08:16:25.439Z,20.81
2022-09-06T08:18:53.618Z,20.88
2022-09-06T08:21:24.439Z,20.94
2022-09-06T08:23:53.375Z,21.08
2022-09-06T08:26:22.346Z,21.30
2022-09-06T08:28:54.858Z,21.53
2022-09-06T08:31:22.531Z,21.78
2022-09-06T08:33:50.125Z,21.60
2022-09-06T08:36:17.802Z,21.93
2022-09-06T08:38:46.711Z,21.86
2022-09-06T08:41:24.836Z,21.76
2022-09-06T08:46:49.284Z,21.92
2022-09-06T08:49:17.024Z,21.97
2022-09-06T08:51:56.701Z,22.21
2022-09-06T08:54:31.314Z,22.09
2022-09-06T08:57:05.716Z,22.31
2022-09-06T08:59:38.732Z,22.41
2022-09-06T09:02:12.628Z,22.66
2022-09-06T09:04:43.855Z,22.69
2022-09-06T09:07:21.760Z,22.86
2022-09-06T09:09:51.652Z,22.96
2022-09-06T09:12:21.359Z,22.84
2022-09-06T09:14:50.063Z,22.98
2022-09-06T09:17:21.652Z,23.18
2022-09-06T09:19:49.580Z,23.22
2022-09-06T09:22:20.254Z,23.28
2022-09-06T09:24:51.779Z,23.36
2022-09-06T09:27:21.518Z,23.42
2022-09-06T09:32:49.496Z,23.61
2022-09-06T09:35:28.258Z,23.89
2022-09-06T09:38:07.702Z,24.16
2022-09-06T09:40:41.734Z,24.07
2022-09-06T09:43:12.646Z,23.92
2022-09-06T09:45:40.259Z,23.98
2022-09-06T09:48:20.230Z,24.43
2022-09-06T09:50:48.164Z,24.17
2022-09-06T09:53:18.682Z,24.36
2022-09-06T09:55:48.057Z,24.43
2022-09-06T09:58:23.690Z,24.30
2022-09-06T10:01:10.989Z,24.63
2022-09-06T10:09:19.163Z,24.58
2022-09-06T10:11:55.318Z,24.74
2022-09-06T10:14:31.513Z,24.69
2022-09-06T10:17:00.160Z,24.72
2022-09-06T10:19:41.139Z,24.55
2022-09-06T10:22:15.308Z,25.14
2022-09-06T10:24:54.239Z,24.91
2022-09-06T10:27:27.015Z,25.40
2022-09-06T10:29:59.321Z,25.38
2022-09-06T10:32:35.761Z,25.86
2022-09-06T10:35:23.726Z,26.04
2022-09-06T10:38:09.077Z,26.16
2022-09-06T10:40:41.990Z,25.96
2022-09-06T10:43:17.328Z,25.22
2022-09-06T10:45:47.228Z,25.88
2022-09-06T10:48:19.550Z,25.96
2022-09-06T10:50:51.630Z,25.61
2022-09-06T10:53:28.835Z,26.78
2022-09-06T10:56:03.185Z,26.60
2022-09-06T11:01:28.653Z,27.27
2022-09-06T11:04:02.262Z,27.21
2022-09-06T11:06:41.638Z,27.04
2022-09-06T11:09:13.595Z,26.71
2022-09-06T11:11:45.399Z,26.56
2022-09-06T11:14:15.535Z,26.75
2022-09-06T11:16:48.156Z,27.29
2022-09-06T11:19:21.617Z,26.70
2022-09-06T11:22:06.228Z,26.55
2022-09-06T11:24:45.655Z,26.79
2022-09-06T11:27:15.917Z,27.15
2022-09-06T11:29:46.821Z,27.24
2022-09-06T11:32:33.968Z,27.02
2022-09-06T11:35:04.514Z,27.73
2022-09-06T11:37:33.857Z,27.94
2022-09-06T11:43:17.409Z,27.57
2022-09-06T11:45:49.854Z,27.62
2022-09-06T11:48:45.923Z,27.24
2022-09-06T11:51:33.271Z,27.06
2022-09-06T11:54:22.732Z,28.02
2022-09-06T11:56:55.637Z,27.40
2022-09-06T11:59:52.369Z,28.52
2022-09-06T12:02:39.285Z,29.15
2022-09-06T12:05:26.376Z,27.99
2022-09-06T12:08:28.142Z,27.86
2022-09-06T12:11:01.638Z,28.12
2022-09-06T12:13:44.020Z,27.09
2022-09-06T12:16:12.558Z,28.17
2022-09-06T12:19:01.230Z,28.83
2022-09-06T12:21:42.234Z,28.50
2022-09-06T12:24:48.534Z,29.53
2022-09-06T12:27:17.355Z,29.25
2022-09-06T12:29:55.185Z,29.68
2022-09-06T12:32:26.678Z,30.04
2022-09-06T12:37:51.351Z,29.38
2022-09-06T12:40:20.097Z,30.05
2022-09-06T12:42:48.874Z,29.97
2022-09-06T12:45:17.021Z,29.20
2022-09-06T12:47:45.224Z,30.58
2022-09-06T12:50:18.444Z,30.76
2022-09-06T12:52:48.489Z,30.85
2022-09-06T12:55:19.977Z,29.61
2022-09-06T12:57:53.287Z,31.05
2022-09-06T13:00:21.694Z,30.42
2022-09-06T13:03:05.644Z,31.81
2022-09-06T13:05:38.858Z,31.53
2022-09-06T13:08:08.839Z,30.85
2022-09-06T13:10:36.791Z,30.54
2022-09-06T13:13:05.235Z,31.92
2022-09-06T13:15:33.026Z,33.39
2022-09-06T13:18:22.558Z,34.39
2022-09-06T13:21:02.597Z,33.57
2022-09-06T13:23:32.661Z,35.15
2022-09-06T13:26:00.477Z,33.60
2022-09-06T13:28:29.744Z,34.45
2022-09-06T13:31:08.125Z,35.84
2022-09-06T13:33:37.615Z,35.52
2022-09-06T13:36:23.668Z,32.37
2022-09-06T13:38:56.609Z,31.78
2022-09-06T13:41:38.235Z,31.24
2022-09-06T13:45:07.499Z,31.24
2022-09-06T13:47:35.115Z,29.91
2022-09-06T13:50:03.217Z,30.49
2022-09-06T13:52:33.072Z,30.89
2022-09-06T13:55:00.768Z,30.50
2022-09-06T13:57:28.964Z,32.77
2022-09-06T13:59:57.662Z,32.52
2022-09-06T14:02:25.514Z,34.58
2022-09-06T14:04:53.834Z,35.47
2022-09-06T14:07:21.806Z,36.22
2022-09-06T14:10:54.161Z,37.29
2022-09-06T14:13:23.534Z,37.60
2022-09-06T14:15:53.218Z,38.25
2022-09-06T14:18:21.129Z,37.13
2022-09-06T14:20:53.029Z,38.20
2022-09-06T14:23:23.490Z,36.34
2022-09-06T14:25:56.677Z,36.31
2022-09-06T14:28:26.524Z,36.13
2022-09-06T14:30:54.670Z,34.62
2022-09-06T14:33:23.305Z,35.37
2022-09-06T14:39:32.042Z,36.99
2022-09-06T14:42:00.107Z,36.51
2022-09-06T14:44:29.385Z,36.75
2022-09-06T14:46:59.565Z,36.52
2022-09-06T14:49:28.911Z,37.07
2022-09-06T14:51:58.296Z,37.33
2022-09-06T14:54:29.229Z,38.72
2022-09-06T14:56:59.671Z,37.17
2022-09-06T14:59:30.127Z,36.97
2022-09-06T15:01:58.625Z,37.37
2022-09-06T15:04:27.755Z,38.18
2022-09-06T15:06:55.665Z,38.26
2022-09-06T15:09:23.719Z,37.98
2022-09-06T15:11:52.881Z,38.42
2022-09-06T15:14:22.591Z,36.36
2022-09-06T15:16:55.835Z,37.41
2022-09-06T15:19:24.689Z,37.93
2022-09-06T15:21:52.980Z,35.85
2022-09-06T15:24:21.911Z,35.35
2022-09-06T15:26:55.367Z,35.53
2022-09-06T15:29:23.088Z,34.59
2022-09-06T15:31:52.607Z,36.52
2022-09-06T15:34:21.555Z,33.85
2022-09-06T15:36:49.606Z,32.64
2022-09-06T15:39:17.663Z,34.04
2022-09-06T15:41:45.647Z,34.49
2022-09-06T15:44:15.130Z,33.33
2022-09-06T15:46:46.005Z,35.39
2022-09-06T15:49:17.528Z,35.32
2022-09-06T15:51:45.421Z,36.06
2022-09-06T15:54:15.363Z,32.07
2022-09-06T15:56:42.427Z,34.15
2022-09-06T15:59:10.935Z,32.31
2022-09-06T16:01:39.275Z,34.36
2022-09-06T16:04:10.039Z,34.36
2022-09-06T16:06:42.639Z,35.14
2022-09-06T16:09:13.635Z,35.86
2022-09-06T16:11:42.688Z,36.13
2022-09-06T16:14:12.539Z,36.25
2022-09-06T16:16:43.513Z,35.90
2022-09-06T16:19:12.293Z,36.36
2022-09-06T16:21:45.146Z,35.94
2022-09-06T16:24:15.047Z,35.31
2022-09-06T16:26:45.078Z,34.42
2022-09-06T16:29:15.066Z,35.59
2022-09-06T16:31:42.957Z,33.99
2022-09-06T16:34:13.815Z,35.45
2022-09-06T16:36:42.857Z,32.73
2022-09-06T16:39:11.786Z,33.26
2022-09-06T16:41:42.160Z,32.24
2022-09-06T16:44:19.576Z,32.43
2022-09-06T16:46:49.856Z,32.26
2022-09-06T16:49:19.167Z,31.54
2022-09-06T16:51:49.917Z,31.14
2022-09-06T16:54:19.443Z,30.74
2022-09-06T16:56:47.090Z,30.59
2022-09-06T16:59:17.210Z,30.17
2022-09-06T17:01:45.544Z,30.22
2022-09-06T17:04:14.627Z,29.82
2022-09-06T17:06:45.600Z,29.63
2022-09-06T17:09:20.650Z,29.58
2022-09-06T17:11:53.339Z,29.40
2022-09-06T17:14:21.403Z,29.09
2022-09-06T17:17:05.104Z,28.89
2022-09-06T17:19:36.449Z,28.72
2022-09-06T17:22:06.256Z,28.58
2022-09-06T17:24:36.135Z,28.14
2022-09-06T17:27:06.544Z,27.93
2022-09-06T17:29:35.040Z,27.63
2022-09-06T17:32:04.561Z,27.17
2022-09-06T17:34:33.857Z,26.51
2022-09-06T17:38:03.088Z,25.81
2022-09-06T17:40:32.625Z,25.06
2022-09-06T17:43:01.548Z,24.48
2022-09-06T17:45:30.186Z,24.05
2022-09-06T17:47:57.884Z,23.59
2022-09-06T17:50:31.567Z,23.40
2022-09-06T17:53:00.034Z,23.52
2022-09-06T17:55:28.868Z,23.05
2022-09-06T17:58:00.756Z,22.68
2022-09-06T18:00:29.310Z,22.58
2022-09-06T18:02:57.064Z,22.51
2022-09-06T18:05:25.607Z,22.15
2022-09-06T18:07:53.541Z,22.11
2022-09-06T18:10:22.216Z,21.99
2022-09-06T18:16:35.201Z,21.55
2022-09-06T18:19:05.715Z,21.29
2022-09-06T18:21:35.860Z,21.48
2022-09-06T18:25:05.327Z,21.32
2022-09-06T18:27:35.226Z,21.39
2022-09-06T18:30:03.642Z,21.42
2022-09-06T18:32:33.895Z,21.26
2022-09-06T18:35:01.812Z,21.09
2022-09-06T18:37:31.569Z,21.06
2022-09-06T18:40:02.044Z,20.85
2022-09-06T18:42:30.037Z,20.68
2022-09-06T18:44:58.955Z,21.12
2022-09-06T18:47:27.032Z,21.10
2022-09-06T18:49:56.960Z,20.89
2022-09-06T18:52:25.372Z,21.09
2022-09-06T18:54:53.344Z,20.92
2022-09-06T18:57:21.613Z,21.11
2022-09-06T18:59:49.813Z,21.10
2022-09-06T19:02:17.737Z,21.24
2022-09-06T19:04:46.327Z,20.88
2022-09-06T19:07:15.373Z,20.78
2022-09-06T19:09:44.976Z,20.67
2022-09-06T19:12:12.727Z,21.01
2022-09-06T19:14:40.795Z,20.81
2022-09-06T19:17:09.307Z,20.54
2022-09-06T19:19:39.394Z,20.54
2022-09-06T19:22:07.292Z,20.84
2022-09-06T19:28:18.819Z,20.38
2022-09-06T19:30:46.804Z,20.64
2022-09-06T19:33:15.430Z,20.43
2022-09-06T19:35:55.902Z,20.35
2022-09-06T19:38:52.610Z,20.53
2022-09-06T19:41:20.597Z,20.54
2022-09-06T19:43:53.174Z,20.06
2022-09-06T19:46:22.551Z,19.52
2022-09-06T19:48:52.545Z,19.35
2022-09-06T19:51:21.087Z,19.63
2022-09-06T19:53:52.855Z,19.23
2022-09-06T19:56:23.601Z,19.37
2022-09-06T19:58:56.371Z,19.36
2022-09-06T20:01:25.362Z,19.40
2022-09-06T20:03:54.572Z,19.38
2022-09-06T20:06:23.211Z,19.28
2022-09-06T20:08:52.807Z,19.42
2022-09-06T20:11:22.244Z,19.47
2022-09-06T20:13:50.453Z,19.73
2022-09-06T20:16:20.873Z,19.68
2022-09-06T20:18:49.155Z,19.46
2022-09-06T20:21:18.980Z,19.51
2022-09-06T20:23:50.379Z,19.62
2022-09-06T20:27:22.713Z,19.58
2022-09-06T20:29:50.563Z,19.72
2022-09-06T20:32:19.672Z,19.48
2022-09-06T20:34:47.691Z,19.53
2022-09-06T20:37:15.861Z,19.23
2022-09-06T20:39:44.744Z,19.28
2022-09-06T20:42:14.066Z,19.12
2022-09-06T20:44:42.052Z,19.31
2022-09-06T20:47:10.721Z,19.33
2022-09-06T20:49:39.866Z,19.35
2022-09-06T20:52:07.955Z,19.21
2022-09-06T20:54:36.728Z,19.14
2022-09-06T20:57:05.544Z,18.99
2022-09-06T20:59:34.232Z,18.85
2022-09-06T21:02:02.305Z,18.71
2022-09-06T21:04:30.654Z,18.61
2022-09-06T21:07:03.408Z,18.67
2022-09-06T21:09:32.891Z,18.61
2022-09-06T21:12:00.666Z,18.29
2022-09-06T21:14:28.950Z,18.24
2022-09-06T21:16:56.857Z,18.29
2022-09-06T21:19:26.312Z,18.42
2022-09-06T21:21:54.104Z,18.68
2022-09-06T21:24:26.783Z,18.74
2022-09-06T21:26:55.663Z,18.58
2022-09-06T21:29:23.585Z,18.77
2022-09-06T21:31:51.845Z,18.67
2022-09-06T21:34:19.902Z,18.73
2022-09-06T21:36:48.284Z,18.90
2022-09-06T21:39:17.462Z,18.99
2022-09-06T21:41:46.902Z,18.92
2022-09-06T21:44:15.492Z,19.13
2022-09-06T21:46:43.658Z,19.11
2022-09-06T21:49:14.439Z,19.15
2022-09-06T21:51:42.950Z,19.11
2022-09-06T21:54:12.120Z,19.11
2022-09-06T21:56:40.198Z,19.09
2022-09-06T21:59:11.137Z,19.15
2022-09-06T22:01:40.861Z,19.19
2022-09-06T22:04:11.580Z,19.10
2022-09-06T22:06:40.929Z,18.89
2022-09-06T22:09:11.882Z,19.17
2022-09-06T22:11:41.381Z,19.18
2022-09-06T22:14:15.242Z,19.22
2022-09-06T22:16:43.755Z,19.11
2022-09-06T22:19:13.729Z,19.21
2022-09-06T22:21:41.639Z,19.21
2022-09-06T22:24:12.012Z,19.34
2022-09-06T22:26:44.745Z,19.37
2022-09-06T22:29:16.548Z,19.57
2022-09-06T22:31:44.517Z,19.66
2022-09-06T22:34:12.503Z,19.73
2022-09-06T22:36:40.792Z,19.73
2022-09-06T22:39:09.528Z,19.88
2022-09-06T22:41:39.424Z,19.77
2022-09-06T22:45:08.671Z,19.61
2022-09-06T22:47:37.913Z,19.51
2022-09-06T22:50:06.818Z,19.56
2022-09-06T22:52:34.695Z,19.38
2022-09-06T22:55:02.731Z,19.38
2022-09-06T22:57:30.482Z,19.59
2022-09-06T23:00:00.273Z,19.47
2022-09-06T23:02:27.913Z,19.49
2022-09-06T23:04:58.221Z,19.43
2022-09-06T23:07:26.621Z,19.56
2022-09-06T23:09:54.936Z,19.49
2022-09-06T23:12:22.960Z,19.54
2022-09-06T23:14:50.784Z,19.70
2022-09-06T23:17:18.758Z,19.55
2022-09-06T23:19:46.852Z,19.34
2022-09-06T23:22:16.205Z,19.36
2022-09-06T23:24:46.290Z,19.35
2022-09-06T23:27:14.955Z,19.44
2022-09-06T23:29:43.886Z,19.49
2022-09-06T23:32:12.856Z,19.40
2022-09-06T23:34:40.870Z,19.47
2022-09-06T23:37:08.964Z,19.69
2022-09-06T23:39:40.862Z,19.64
2022-09-06T23:42:14.162Z,19.48
2022-09-06T23:44:41.920Z,19.57
2022-09-06T23:47:09.848Z,19.89
2022-09-06T23:49:38.278Z,19.50
2022-09-06T23:52:07.204Z,19.33
2022-09-06T23:54:36.388Z,19.36
2022-09-06T23:57:10.522Z,19.30
2022-09-06T23:59:38.684Z,19.21
